Aviation Digital Data Service (ADDS)

Output produced by METARs form (1612 UTC 14 August 2018)
found at http://www.aviationweather.gov/adds/metars/
 
KPOU 141553Z 23005KT 10SM FEW029 BKN036 26/19 A2984 RMK AO2 LTG DSNT SE SLP102 T02610194